Time;durP1;ratioP1;P1;durP2;ratioP2;P2;SDS_P1;SDS_P2;PMS_P1;PMS_P2;Temp;Humidity;BMP_temperature;BMP_pressure;BME280_temperature;BME280_humidity;BME280_pressure;Samples;Min_cycle;Max_cycle;Signal;HPM_P1;HPM_P2
2022/12/28 00:01:13;;;;;;;7.73;2.80;;;8.20;76.60;;;10.53;55.49;101533.78;5037815;28;20207;-55
2022/12/28 00:03:42;;;;;;;3.73;2.00;;;8.20;76.50;;;10.49;55.55;101535.09;5036727;28;20191;-53
2022/12/28 00:06:10;;;;;;;5.77;2.27;;;8.20;76.40;;;10.52;55.87;101532.16;5019803;28;20207;-54
2022/12/28 00:08:38;;;;;;;5.23;2.13;;;8.20;76.40;;;10.52;55.13;101521.63;5034417;28;20198;-55
2022/12/28 00:11:09;;;;;;;4.00;2.30;;;8.10;76.00;;;10.60;54.88;101508.50;5039426;28;20477;-53
2022/12/28 00:13:50;;;;;;;4.50;2.47;;;8.20;76.10;;;10.59;54.84;101500.78;5038912;28;20533;-55
2022/12/28 00:16:23;;;;;;;4.43;2.20;;;8.20;75.80;;;10.51;55.07;101504.19;5038667;28;20198;-56
2022/12/28 00:18:52;;;;;;;5.43;2.23;;;8.20;75.50;;;10.42;54.96;101504.28;5038659;28;20301;-56
2022/12/28 00:21:19;;;;;;;4.50;2.20;;;8.10;75.40;;;10.52;54.98;101495.31;5038591;28;20198;-56
2022/12/28 00:23:49;;;;;;;4.40;2.23;;;8.20;75.50;;;10.56;55.02;101491.38;5041380;28;20201;-56
2022/12/28 00:26:17;;;;;;;6.27;2.23;;;8.20;75.40;;;10.60;53.99;101484.81;5040192;28;20190;-54
2022/12/28 00:28:44;;;;;;;3.87;1.70;;;8.20;75.20;;;10.55;54.55;101478.41;5037255;28;20582;-57
2022/12/28 00:31:11;;;;;;;4.77;2.07;;;8.20;75.00;;;10.62;54.38;101472.34;5038015;28;20194;-54
2022/12/28 00:33:38;;;;;;;4.67;2.20;;;8.20;74.90;;;10.60;54.06;101465.59;5036923;28;20289;-54
2022/12/28 00:36:11;;;;;;;4.63;2.37;;;8.20;74.60;;;10.58;54.05;101463.09;5030164;28;20195;-52
2022/12/28 00:38:39;;;;;;;9.13;2.63;;;8.20;74.60;;;10.53;53.75;101465.38;5016414;28;20227;-52
2022/12/28 00:41:07;;;;;;;3.63;1.60;;;8.20;74.30;;;10.54;53.94;101451.25;5016383;28;20198;-51
2022/12/28 00:43:34;;;;;;;5.17;2.20;;;8.20;74.20;;;10.61;53.65;101449.63;5015938;28;20192;-53
2022/12/28 00:46:02;;;;;;;6.30;2.17;;;8.30;74.20;;;10.60;54.16;101440.06;5016354;28;20245;-53
2022/12/28 00:48:29;;;;;;;5.00;2.10;;;8.30;74.20;;;10.59;53.48;101427.06;5024549;28;20273;-53
2022/12/28 00:51:02;;;;;;;5.17;2.10;;;8.20;73.90;;;10.62;53.74;101422.34;5036855;28;20194;-54
2022/12/28 00:53:30;;;;;;;4.70;2.60;;;8.30;74.10;;;10.59;53.65;101414.75;5036199;28;20272;-52
2022/12/28 00:56:05;;;;;;;4.93;2.00;;;8.30;74.10;;;10.63;54.08;101420.50;5032876;28;20270;-54
2022/12/28 00:58:32;;;;;;;4.70;2.00;;;8.30;74.00;;;10.65;53.32;101414.09;5019891;28;20179;-52
2022/12/28 01:00:59;;;;;;;5.13;2.03;;;8.30;74.00;;;10.50;53.97;101413.06;5037134;28;20229;-54
2022/12/28 01:03:26;;;;;;;6.57;2.00;;;8.20;73.80;;;10.51;54.09;101417.34;5035568;28;20200;-52
2022/12/28 01:05:53;;;;;;;6.30;2.50;;;8.30;73.90;;;10.55;53.98;101421.31;5035520;28;20222;-52
2022/12/28 01:08:21;;;;;;;2.63;1.73;;;8.30;73.90;;;10.55;54.16;101404.69;5024992;28;20222;-52
2022/12/28 01:10:49;;;;;;;6.53;1.80;;;8.30;74.00;;;10.61;54.24;101412.78;5028867;28;20206;-53
2022/12/28 01:13:16;;;;;;;4.03;2.17;;;8.30;73.90;;;10.65;53.59;101410.66;5035220;28;20221;-53
2022/12/28 01:15:43;;;;;;;4.13;1.90;;;8.30;73.80;;;10.66;53.90;101407.88;5035595;28;20186;-54
2022/12/28 01:18:10;;;;;;;8.33;2.20;;;8.30;73.80;;;10.67;53.95;101404.22;5035988;28;20559;-53
2022/12/28 01:20:39;;;;;;;6.13;1.90;;;8.30;73.80;;;10.66;53.79;101399.13;5035361;28;20746;-54
2022/12/28 01:23:06;;;;;;;3.90;2.37;;;8.30;73.80;;;10.71;53.92;101413.50;5035351;28;20194;-52
2022/12/28 01:25:33;;;;;;;5.97;2.23;;;8.30;73.80;;;10.71;53.34;101405.59;5017451;28;20273;-53
2022/12/28 01:28:01;;;;;;;3.83;2.40;;;8.30;73.70;;;10.84;53.83;101400.69;5015366;28;20195;-52
2022/12/28 01:30:29;;;;;;;5.90;2.47;;;8.40;73.90;;;10.92;53.12;101406.97;5014823;28;20629;-52
2022/12/28 01:32:58;;;;;;;2.87;2.10;;;8.40;73.90;;;10.94;52.83;101399.72;5015047;28;20246;-52
2022/12/28 01:35:26;;;;;;;2.80;1.90;;;8.40;73.80;;;10.92;52.98;101386.72;5014936;28;20607;-52
2022/12/28 01:37:55;;;;;;;4.13;2.00;;;8.40;73.60;;;10.88;52.98;101378.34;5014875;28;20227;-54
2022/12/28 01:40:22;;;;;;;3.83;1.73;;;8.40;73.60;;;10.81;53.15;101387.03;5022680;28;20218;-53
2022/12/28 01:42:49;;;;;;;5.20;2.17;;;8.40;73.60;;;10.92;53.05;101367.44;5035287;28;20647;-53
2022/12/28 01:45:20;;;;;;;5.80;2.13;;;8.50;73.80;;;10.94;53.32;101368.13;5034909;28;20197;-52
2022/12/28 01:47:52;;;;;;;4.60;2.23;;;8.50;73.90;;;10.84;53.45;101360.34;5034570;28;20186;-52
2022/12/28 01:50:26;;;;;;;2.37;1.83;;;8.50;74.00;;;10.73;53.54;101353.59;5034099;28;20285;-54
2022/12/28 01:53:02;;;;;;;7.60;2.20;;;8.40;74.00;;;10.79;54.19;101355.56;5028623;28;20211;-55
2022/12/28 01:55:34;;;;;;;6.73;2.30;;;8.50;74.10;;;10.83;53.40;101351.66;5014551;28;20221;-53
2022/12/28 01:58:07;;;;;;;2.97;1.77;;;8.50;74.20;;;10.79;54.10;101345.03;5013836;28;20612;-55
2022/12/28 02:00:35;;;;;;;4.30;2.07;;;8.50;74.30;;;10.77;53.86;101331.22;5015189;28;20211;-52
2022/12/28 02:03:09;;;;;;;5.30;2.00;;;8.50;74.50;;;10.73;54.01;101324.63;5018910;28;20191;-54
2022/12/28 02:05:39;;;;;;;3.40;2.03;;;8.50;74.70;;;10.83;54.06;101324.50;5015056;28;20192;-52
2022/12/28 02:08:15;;;;;;;3.57;2.07;;;8.50;74.80;;;10.78;54.73;101311.81;5024381;28;20259;-53
2022/12/28 02:10:44;;;;;;;3.47;2.13;;;8.50;75.10;;;10.69;55.33;101320.69;5034287;28;20210;-52
2022/12/28 02:13:15;;;;;;;5.37;2.30;;;8.40;75.20;;;10.69;55.00;101312.78;5026375;28;20674;-53
2022/12/28 02:15:47;;;;;;;6.60;2.03;;;8.40;75.60;;;10.73;55.12;101303.56;5033394;28;20194;-55
2022/12/28 02:18:17;;;;;;;5.83;2.03;;;8.40;75.80;;;10.68;55.12;101287.44;5033795;28;20547;-55
2022/12/28 02:21:15;;;;;;;3.60;1.67;;;8.40;76.30;;;10.60;55.88;101271.59;5033812;28;20191;-53
2022/12/28 02:24:14;;;;;;;4.00;1.80;;;8.40;77.40;;;10.48;56.85;101270.28;5033682;28;20193;-55
2022/12/28 02:26:52;;;;;;;4.33;2.23;;;8.30;77.00;;;10.37;57.18;101265.31;5033890;28;20179;-54
2022/12/28 02:29:54;;;;;;;4.60;2.20;;;8.30;77.50;;;10.37;57.20;101257.41;5020991;28;20650;-53
2022/12/28 02:32:54;;;;;;;4.27;1.90;;;8.30;77.80;;;10.52;57.01;101257.63;5014664;28;20679;-55
2022/12/28 02:35:36;;;;;;;3.80;2.13;;;8.30;77.90;;;10.53;57.29;101249.56;5013978;28;20199;-53
2022/12/28 02:38:14;;;;;;;3.97;1.80;;;8.30;78.40;;;10.45;57.70;101240.84;5014514;28;20600;-52
2022/12/28 02:40:48;;;;;;;2.63;2.10;;;8.20;79.20;;;10.40;58.33;101233.41;5013028;28;20687;-54
2022/12/28 02:43:15;;;;;;;7.40;2.40;;;8.20;79.70;;;10.38;58.49;101230.13;5013946;28;20183;-54
2022/12/28 02:51:57;;;;;;;3.13;2.00;;;8.10;80.80;;;10.24;60.16;101207.09;5033686;28;20551;-55
2022/12/28 02:58:24;;;;;;;4.67;2.40;;;8.00;81.60;;;9.88;61.44;101187.22;5034268;28;20183;-55
2022/12/28 03:01:12;;;;;;;5.67;2.67;;;7.90;82.10;;;9.82;61.48;101187.81;5031375;28;20635;-54
2022/12/28 03:03:58;;;;;;;3.47;1.73;;;7.90;82.50;;;9.84;61.69;101184.06;5013408;28;20183;-55
2022/12/28 03:09:40;;;;;;;3.60;2.10;;;7.80;83.00;;;9.88;61.95;101171.44;5032995;28;20210;-53
2022/12/28 03:12:18;;;;;;;3.57;2.00;;;7.80;83.30;;;9.83;61.71;101171.09;5033062;28;20181;-52
2022/12/28 03:14:55;;;;;;;3.43;2.23;;;7.80;83.60;;;9.74;62.64;101156.28;5033142;28;20269;-54
2022/12/28 03:31:36;;;;;;;3.93;1.57;;;7.70;84.60;;;9.84;62.43;101120.97;5017679;28;20270;-52
2022/12/28 03:34:05;;;;;;;3.77;1.90;;;7.70;84.60;;;9.86;62.28;101103.25;5017487;28;20223;-52
2022/12/28 03:36:46;;;;;;;7.03;2.33;;;7.70;84.70;;;9.87;62.68;101104.06;5017708;28;20192;-52
2022/12/28 03:39:29;;;;;;;5.47;2.27;;;7.80;84.70;;;9.89;62.85;101086.34;5017628;28;20211;-51
2022/12/28 03:45:00;;;;;;;6.97;2.20;;;7.80;84.90;;;9.94;62.29;101089.28;5019272;28;20195;-51
2022/12/28 03:47:30;;;;;;;3.57;1.97;;;7.80;84.70;;;10.06;62.38;101082.72;5036799;28;20217;-53
2022/12/28 03:49:59;;;;;;;4.57;2.10;;;7.80;84.60;;;10.15;62.35;101076.50;5037105;28;20289;-53
2022/12/28 03:52:27;;;;;;;3.27;1.73;;;7.90;84.70;;;10.06;62.67;101072.22;5036627;28;20674;-52
2022/12/28 03:54:54;;;;;;;3.03;1.70;;;7.90;84.80;;;10.20;62.32;101084.75;5036534;28;20202;-52
2022/12/28 03:57:22;;;;;;;4.30;1.57;;;7.90;84.50;;;10.27;61.78;101059.41;5036612;28;20198;-52
2022/12/28 03:59:49;;;;;;;3.37;2.23;;;7.90;84.70;;;10.19;61.99;101051.56;5036397;28;20216;-52
2022/12/28 04:02:16;;;;;;;3.57;1.93;;;7.90;84.80;;;10.18;61.79;101057.78;5035275;28;20198;-52
2022/12/28 04:04:43;;;;;;;3.00;1.77;;;7.90;84.70;;;10.15;61.74;101044.94;5021513;28;20542;-54
2022/12/28 04:07:11;;;;;;;3.63;1.83;;;7.90;84.70;;;10.11;62.42;101048.88;5034384;28;20206;-52
2022/12/28 04:09:38;;;;;;;3.93;2.10;;;7.90;84.80;;;10.11;62.24;101026.06;5035951;28;20222;-56
2022/12/28 04:12:05;;;;;;;2.40;1.80;;;7.90;84.90;;;10.07;63.17;101027.34;5036183;28;20194;-54
2022/12/28 04:14:32;;;;;;;3.17;1.70;;;7.90;85.10;;;10.10;63.03;101020.94;5036164;28;20219;-53
2022/12/28 04:16:59;;;;;;;3.70;1.93;;;7.90;85.20;;;10.15;63.07;101023.91;5027030;28;20661;-55
2022/12/28 04:19:26;;;;;;;6.37;2.47;;;8.00;85.30;;;10.13;62.79;101010.09;5031653;28;20562;-55
2022/12/28 04:21:53;;;;;;;2.50;1.93;;;7.90;85.70;;;10.14;63.01;101012.59;5035787;28;20205;-55
2022/12/28 04:24:21;;;;;;;7.57;2.37;;;7.90;85.60;;;10.15;62.99;101002.88;5036164;28;20187;-54
2022/12/28 04:26:48;;;;;;;6.50;2.10;;;7.90;86.00;;;10.17;63.31;100995.66;5035823;28;20198;-52
2022/12/28 04:29:15;;;;;;;2.10;1.90;;;7.90;86.20;;;9.95;64.40;100991.03;5035563;28;20686;-53
2022/12/28 04:31:42;;;;;;;2.10;1.90;;;7.80;86.80;;;9.98;64.64;100988.06;5017733;28;20195;-54
2022/12/28 04:34:10;;;;;;;6.90;2.40;;;7.90;86.90;;;10.05;64.31;100968.84;5016199;28;20215;-55
2022/12/28 04:36:38;;;;;;;3.50;2.00;;;7.90;87.00;;;9.86;65.17;100966.56;5015261;28;20191;-53
2022/12/28 04:39:05;;;;;;;3.10;2.20;;;7.80;87.60;;;9.85;65.49;100964.06;5015638;28;20234;-54
2022/12/28 04:41:33;;;;;;;3.43;2.40;;;7.80;87.70;;;9.90;64.84;100951.25;5021224;28;20187;-53
2022/12/28 04:44:00;;;;;;;5.10;2.70;;;7.80;88.60;;;10.05;64.80;100955.72;5035595;28;20198;-52
2022/12/28 04:46:27;;;;;;;7.20;2.70;;;7.90;87.80;;;10.11;64.99;100956.81;5035276;28;20547;-53
2022/12/28 04:48:54;;;;;;;5.27;2.80;;;7.90;88.10;;;9.96;65.62;100953.25;5034966;28;20270;-54
2022/12/28 04:51:24;;;;;;;2.93;2.60;;;7.80;88.40;;;9.97;65.55;100941.72;5035209;28;20195;-52
2022/12/28 04:53:52;;;;;;;4.73;2.60;;;7.80;88.60;;;10.05;65.21;100939.94;5035048;28;20656;-52
2022/12/28 04:56:22;;;;;;;4.67;2.70;;;7.90;88.90;;;10.04;65.63;100945.34;5035311;28;20195;-53
2022/12/28 04:58:55;;;;;;;4.13;2.80;;;7.90;89.20;;;9.97;66.23;100942.56;5034520;28;20222;-55
2022/12/28 05:01:22;;;;;;;7.27;3.17;;;7.80;89.70;;;10.00;66.73;100942.22;5015056;28;20183;-54
2022/12/28 05:03:52;;;;;;;3.43;2.90;;;7.90;89.90;;;9.95;67.04;100934.00;5015518;28;20199;-52
2022/12/28 05:06:24;;;;;;;4.93;2.93;;;7.90;90.10;;;9.98;67.46;100932.88;5015701;28;20277;-52
2022/12/28 05:08:51;;;;;;;4.50;2.80;;;7.90;90.20;;;9.96;67.63;100929.59;5031859;28;20236;-55
2022/12/28 05:11:22;;;;;;;4.93;3.30;;;7.90;90.30;;;10.07;67.37;100931.88;5039857;28;20199;-53
2022/12/28 05:13:50;;;;;;;7.10;3.37;;;7.90;90.40;;;10.03;67.10;100930.56;5026605;28;20221;-53
2022/12/28 05:16:21;;;;;;;4.93;2.87;;;7.90;90.60;;;10.07;67.73;100921.34;5027170;28;20193;-54
2022/12/28 05:18:48;;;;;;;6.27;3.33;;;7.90;90.70;;;10.08;67.94;100910.66;5026501;28;20253;-53
2022/12/28 05:21:18;;;;;;;3.93;3.20;;;8.00;90.80;;;10.11;67.60;100912.13;5019770;28;20278;-55
2022/12/28 05:23:47;;;;;;;5.97;3.27;;;7.90;90.90;;;10.11;68.13;100917.38;5015226;28;20192;-53
2022/12/28 05:26:17;;;;;;;4.60;3.47;;;7.90;91.00;;;10.05;68.73;100902.28;5019195;28;20253;-53
2022/12/28 05:28:45;;;;;;;3.23;2.73;;;8.00;91.20;;;10.14;68.23;100909.19;5014740;28;20215;-55
2022/12/28 05:31:16;;;;;;;8.03;3.83;;;8.00;91.20;;;10.20;67.77;100911.16;5015159;28;20195;-53
2022/12/28 05:33:44;;;;;;;4.30;3.30;;;8.00;91.30;;;10.25;67.89;100908.84;5015229;28;20199;-53
2022/12/28 05:36:15;;;;;;;5.47;3.33;;;8.00;91.30;;;10.26;68.66;100913.13;5016630;28;20542;-55
2022/12/28 05:38:43;;;;;;;3.13;2.83;;;8.00;91.40;;;10.28;68.16;100898.00;5024074;28;20558;-53
2022/12/28 05:41:14;;;;;;;4.37;3.03;;;8.00;91.50;;;10.26;68.07;100901.78;5014469;28;20187;-54
2022/12/28 05:43:42;;;;;;;3.97;3.30;;;8.00;91.50;;;10.37;68.47;100896.97;5014539;28;20547;-55
2022/12/28 05:46:12;;;;;;;4.17;3.67;;;8.10;91.60;;;10.40;68.17;100896.63;5014598;28;20652;-55
2022/12/28 05:48:41;;;;;;;6.07;4.77;;;8.10;91.70;;;10.35;68.38;100883.16;5023238;28;20214;-52
2022/12/28 05:51:12;;;;;;;3.73;3.43;;;8.10;91.70;;;10.38;68.29;100882.00;5034340;28;20195;-52
2022/12/28 05:53:41;;;;;;;5.20;3.20;;;8.10;91.70;;;10.34;68.33;100868.34;5018042;28;20226;-55
2022/12/28 05:56:12;;;;;;;3.80;3.33;;;8.10;91.70;;;10.32;68.39;100867.72;5015242;28;20194;-53
2022/12/28 05:58:41;;;;;;;4.37;3.30;;;8.10;91.70;;;10.19;69.13;100867.44;5032921;28;20269;-51
2022/12/28 06:01:11;;;;;;;3.40;3.10;;;8.10;91.80;;;10.18;69.48;100873.69;5033574;28;20641;-52
2022/12/28 06:03:39;;;;;;;4.30;3.50;;;8.10;91.80;;;10.24;69.57;100869.56;5034123;28;20195;-53
2022/12/28 06:06:12;;;;;;;3.43;3.13;;;8.10;91.90;;;10.26;69.20;100873.66;5033887;28;20678;-53
2022/12/28 06:08:40;;;;;;;3.40;3.07;;;8.10;92.00;;;10.36;69.24;100863.78;5032088;28;20234;-53
2022/12/28 06:11:10;;;;;;;3.20;2.90;;;8.10;92.00;;;10.20;69.51;100869.06;5034198;28;20190;-53
2022/12/28 06:13:37;;;;;;;5.27;3.37;;;8.10;92.00;;;10.24;70.28;100865.13;5034388;28;20253;-52
2022/12/28 06:16:06;;;;;;;3.03;2.80;;;8.20;92.10;;;10.31;69.42;100862.63;5033791;28;20194;-54
2022/12/28 06:18:34;;;;;;;3.30;3.00;;;8.20;92.50;;;10.40;69.70;100862.44;5033382;28;20205;-53
2022/12/28 06:21:04;;;;;;;3.30;3.00;;;8.20;92.10;;;10.60;68.82;100866.28;5017975;28;20195;-54
2022/12/28 06:23:32;;;;;;;3.40;3.10;;;8.30;92.00;;;10.63;68.47;100850.16;5014314;28;20726;-52
2022/12/28 06:26:02;;;;;;;3.40;3.10;;;8.30;92.10;;;10.64;68.52;100850.97;5013841;28;20246;-53
2022/12/28 06:28:29;;;;;;;3.60;3.30;;;8.30;91.90;;;10.69;68.22;100849.47;5013198;28;20199;-54
2022/12/28 06:31:04;;;;;;;3.20;3.00;;;8.30;92.10;;;10.59;68.67;100840.97;5013690;28;20202;-54
2022/12/28 06:33:32;;;;;;;2.87;2.67;;;8.30;92.10;;;10.60;69.28;100841.81;5019490;28;20213;-54
2022/12/28 06:35:59;;;;;;;4.00;3.07;;;8.40;92.10;;;10.73;69.21;100834.97;5033344;28;20197;-55
2022/12/28 06:38:28;;;;;;;3.53;3.33;;;8.40;92.10;;;10.64;69.43;100840.44;5032880;28;20567;-54
2022/12/28 06:41:02;;;;;;;3.40;3.20;;;8.40;92.30;;;10.54;69.29;100824.88;5033997;28;20646;-53
2022/12/28 06:43:42;;;;;;;3.53;3.23;;;8.40;92.30;;;10.70;69.54;100837.94;5033356;28;20182;-52
2022/12/28 06:46:11;;;;;;;3.17;2.97;;;8.40;92.20;;;10.78;68.58;100819.47;5033431;28;20697;-54
2022/12/28 06:48:39;;;;;;;3.80;3.50;;;8.50;92.20;;;10.79;68.67;100812.41;5015796;28;20505;-55
2022/12/28 06:51:10;;;;;;;4.07;3.23;;;8.50;92.30;;;10.89;68.57;100821.72;5013281;28;20195;-56
2022/12/28 06:53:38;;;;;;;3.40;3.10;;;8.50;92.20;;;10.85;69.09;100823.06;5013138;28;20264;-54
2022/12/28 06:56:10;;;;;;;4.60;4.30;;;8.50;92.30;;;10.83;69.29;100814.53;5013007;28;20277;-53
2022/12/28 06:58:38;;;;;;;4.00;3.60;;;8.50;92.40;;;10.97;68.47;100812.94;5013318;28;20547;-55
2022/12/28 07:01:08;;;;;;;4.80;3.90;;;8.60;92.20;;;11.13;68.77;100815.44;5028325;28;20195;-52
2022/12/28 07:03:35;;;;;;;4.37;3.97;;;8.70;92.30;;;11.23;67.99;100802.88;5019793;28;20179;-55
2022/12/28 07:06:04;;;;;;;4.20;3.80;;;8.70;92.60;;;11.21;68.18;100806.66;5019751;28;20224;-54
2022/12/28 07:08:32;;;;;;;3.87;3.57;;;8.70;92.20;;;11.32;67.76;100803.59;5018366;28;20203;-53
2022/12/28 07:11:04;;;;;;;4.60;4.30;;;8.80;92.20;;;11.27;67.68;100801.50;5019986;28;20202;-55
2022/12/28 07:13:33;;;;;;;4.20;3.80;;;8.80;92.20;;;11.33;68.34;100800.00;5020172;28;20197;-55
2022/12/28 07:16:03;;;;;;;4.30;3.90;;;8.90;92.20;;;11.26;68.67;100799.88;5036438;28;20205;-55
2022/12/28 07:18:30;;;;;;;4.43;4.13;;;8.90;92.10;;;11.28;68.49;100810.25;5039331;28;20195;-53
2022/12/28 07:20:59;;;;;;;3.50;3.30;;;8.90;92.10;;;11.41;68.32;100808.63;5039469;28;20194;-53
2022/12/28 07:23:29;;;;;;;4.37;4.03;;;9.00;92.10;;;11.55;67.72;100809.69;5039628;28;20216;-52
2022/12/28 07:25:56;;;;;;;4.53;4.23;;;9.00;92.00;;;11.59;67.53;100816.22;5039744;28;20552;-52
2022/12/28 07:28:24;;;;;;;4.10;3.67;;;9.10;92.10;;;11.64;67.53;100803.31;5031366;28;20191;-54
2022/12/28 07:30:52;;;;;;;4.70;4.30;;;9.10;92.00;;;11.59;68.09;100816.22;5028714;28;20198;-52
2022/12/28 07:33:19;;;;;;;4.13;3.83;;;9.20;92.00;;;11.70;67.28;100817.63;5039591;28;20195;-52
2022/12/28 07:35:46;;;;;;;6.43;5.73;;;9.20;91.90;;;11.77;67.27;100814.09;5039422;28;20215;-54
2022/12/28 07:38:13;;;;;;;3.70;3.50;;;9.30;91.90;;;11.88;67.20;100815.47;5039649;28;20202;-53
2022/12/28 07:40:47;;;;;;;3.83;3.53;;;9.30;91.80;;;11.92;66.96;100822.84;5039938;28;20205;-55
2022/12/28 07:43:14;;;;;;;4.30;4.00;;;9.30;91.70;;;12.00;66.64;100824.59;5022687;28;20214;-55
2022/12/28 07:45:42;;;;;;;4.03;3.63;;;9.40;91.70;;;12.08;66.62;100820.03;5019877;28;20214;-54
2022/12/28 07:48:10;;;;;;;3.80;3.60;;;9.40;91.70;;;12.17;66.45;100832.13;5024147;28;20194;-54
2022/12/28 07:50:37;;;;;;;5.40;4.90;;;9.50;91.70;;;12.27;66.13;100815.19;5039259;28;20221;-53
2022/12/28 07:53:04;;;;;;;3.87;3.57;;;9.50;91.60;;;12.31;65.97;100827.03;5039426;28;20569;-55
2022/12/28 07:55:31;;;;;;;3.83;3.53;;;9.60;91.60;;;12.26;65.70;100827.59;5039475;28;20218;-52
2022/12/28 07:57:58;;;;;;;3.77;3.57;;;9.60;91.50;;;12.16;66.02;100822.59;5038908;28;20194;-54
2022/12/28 08:00:25;;;;;;;3.80;3.50;;;9.60;91.40;;;12.21;66.30;100825.50;5039012;28;20297;-54
2022/12/28 08:02:54;;;;;;;3.70;3.40;;;9.70;91.40;;;12.29;66.06;100818.47;5038964;28;20205;-53
2022/12/28 08:05:23;;;;;;;3.90;3.60;;;9.70;91.40;;;12.34;66.18;100821.41;5039207;28;20651;-54
2022/12/28 08:07:50;;;;;;;3.70;3.37;;;9.70;91.40;;;12.35;65.98;100809.81;5039285;28;20187;-55
2022/12/28 08:10:17;;;;;;;3.90;3.60;;;9.80;91.40;;;12.36;66.28;100819.38;5025129;28;20322;-53
2022/12/28 08:12:43;;;;;;;3.97;3.67;;;9.80;91.40;;;12.32;65.89;100818.91;5015726;28;20200;-56
2022/12/28 08:15:11;;;;;;;3.53;3.33;;;9.80;91.40;;;12.30;66.11;100814.81;5015971;28;20453;-55
2022/12/28 08:17:37;;;;;;;3.33;2.97;;;9.80;91.70;;;12.36;65.97;100814.09;5016290;28;20195;-53
2022/12/28 08:20:06;;;;;;;3.07;2.87;;;9.90;91.40;;;12.38;66.09;100817.38;5015761;28;20297;-53
2022/12/28 08:22:34;;;;;;;4.53;3.40;;;9.90;91.30;;;12.36;66.41;100816.75;5017767;28;20405;-53
2022/12/28 08:25:02;;;;;;;3.30;3.10;;;9.90;91.30;;;12.36;66.45;100820.19;5035720;28;20203;-52
2022/12/28 08:27:30;;;;;;;3.47;3.27;;;9.90;91.30;;;12.32;66.61;100823.38;5035296;28;20195;-52
2022/12/28 08:30:06;;;;;;;2.83;2.63;;;9.90;91.30;;;12.36;66.52;100819.38;5035715;28;20209;-55
2022/12/28 08:32:33;;;;;;;2.60;2.50;;;10.00;90.80;;;12.37;66.62;100836.84;5035748;28;20493;-54
2022/12/28 08:34:59;;;;;;;3.13;2.87;;;10.00;90.80;;;12.46;66.35;100825.16;5035103;28;20362;-54
2022/12/28 08:37:26;;;;;;;3.53;3.23;;;10.00;90.70;;;12.48;66.42;100825.84;5023556;28;20203;-53
2022/12/28 08:39:55;;;;;;;2.60;2.40;;;10.10;90.80;;;12.51;66.19;100817.53;5015500;28;20294;-53
2022/12/28 08:42:22;;;;;;;2.93;2.73;;;10.10;90.70;;;12.55;66.39;100829.38;5015396;28;20266;-53
2022/12/28 08:44:48;;;;;;;2.80;2.60;;;10.10;91.00;;;12.63;65.97;100826.59;5015636;28;20656;-55
2022/12/28 08:47:15;;;;;;;3.00;2.80;;;10.20;90.60;;;12.70;65.35;100822.22;5015264;28;20195;-56
2022/12/28 08:49:43;;;;;;;2.80;2.60;;;10.20;90.60;;;12.66;65.89;100810.41;5032518;28;20225;-52
2022/12/28 08:52:10;;;;;;;4.37;2.97;;;10.20;90.90;;;12.71;65.80;100834.44;5035217;28;20205;-53
2022/12/28 08:54:37;;;;;;;2.83;2.63;;;10.30;90.50;;;12.79;65.55;100827.19;5035036;28;20663;-55
2022/12/28 08:57:05;;;;;;;3.23;3.03;;;10.30;90.50;;;12.89;65.46;100827.72;5035324;28;20315;-57
2022/12/28 08:59:32;;;;;;;2.30;2.20;;;10.30;90.50;;;12.97;65.09;100823.31;5034868;28;20215;-53
2022/12/28 09:01:59;;;;;;;2.70;2.50;;;10.40;90.50;;;13.07;65.12;100821.22;5034312;28;20187;-56
2022/12/28 09:04:26;;;;;;;3.23;2.97;;;10.30;90.40;;;13.01;64.83;100824.56;5026697;28;20193;-54
2022/12/28 09:06:53;;;;;;;2.70;2.50;;;10.40;90.50;;;12.98;64.83;100833.69;5014772;28;20265;-54
2022/12/28 09:09:20;;;;;;;2.23;2.13;;;10.40;90.40;;;13.03;65.00;100828.66;5014667;28;20218;-54
2022/12/28 09:11:48;;;;;;;2.80;2.60;;;10.40;90.40;;;12.96;65.16;100827.78;5014962;28;20187;-54
2022/12/28 09:14:16;;;;;;;2.73;2.53;;;10.40;90.30;;;12.91;65.26;100841.56;5015156;28;20628;-54
2022/12/28 09:16:51;;;;;;;3.10;2.40;;;10.50;90.30;;;12.93;65.14;100822.06;5014875;28;20201;-55
2022/12/28 09:19:18;;;;;;;2.87;2.67;;;10.50;90.30;;;12.95;65.41;100820.06;5031856;28;20227;-55
2022/12/28 09:21:47;;;;;;;2.40;2.30;;;10.50;90.30;;;13.08;65.16;100822.84;5034774;28;20536;-54
2022/12/28 09:24:14;;;;;;;2.67;2.47;;;10.60;90.30;;;13.20;64.89;100827.44;5034587;28;20221;-54
2022/12/28 09:26:42;;;;;;;2.53;2.40;;;10.60;90.30;;;13.19;64.69;100828.44;5034978;28;20191;-56
2022/12/28 09:29:15;;;;;;;2.80;2.60;;;10.60;90.20;;;13.32;64.53;100828.56;5033988;28;20235;-54
2022/12/28 09:31:43;;;;;;;2.50;2.30;;;10.70;90.20;;;13.43;64.27;100836.00;5034309;28;20194;-55
2022/12/28 09:34:14;;;;;;;2.83;2.43;;;10.80;90.10;;;13.49;64.05;100834.41;5034203;28;21004;-54
2022/12/28 09:37:01;;;;;;;2.57;2.40;;;10.80;90.10;;;13.55;63.68;100845.03;5033909;28;20248;-53
2022/12/28 09:39:28;;;;;;;2.67;2.47;;;10.80;89.90;;;13.51;63.85;100840.31;5032584;28;20218;-52
2022/12/28 09:42:00;;;;;;;3.43;2.50;;;10.90;89.70;;;13.56;63.68;100838.75;5033871;28;20201;-55
2022/12/28 09:44:48;;;;;;;3.00;2.70;;;10.90;89.60;;;13.55;63.51;100845.03;5033874;28;20580;-56
2022/12/28 09:47:32;;;;;;;2.00;1.90;;;11.00;89.60;;;13.51;63.69;100837.69;5034370;28;20593;-54
2022/12/28 09:50:23;;;;;;;1.90;1.80;;;11.00;89.30;;;13.58;63.49;100841.19;5027904;28;20293;-56
2022/12/28 09:53:12;;;;;;;2.20;2.10;;;11.00;89.30;;;13.57;63.39;100835.09;5014392;28;20550;-55
2022/12/28 09:55:52;;;;;;;1.90;1.80;;;11.00;89.30;;;13.62;63.45;100837.16;5014324;28;20580;-52
2022/12/28 09:58:20;;;;;;;3.20;2.30;;;11.00;89.20;;;13.68;63.25;100833.75;5013735;28;20198;-52
2022/12/28 10:00:52;;;;;;;2.57;2.37;;;11.10;89.20;;;13.66;63.26;100835.78;5029594;28;20249;-54
2022/12/28 10:03:25;;;;;;;2.00;1.60;;;11.10;89.20;;;13.72;63.33;100829.72;5033512;28;20201;-52
2022/12/28 10:05:56;;;;;;;2.50;2.03;;;11.10;89.50;;;13.65;63.39;100828.84;5031691;28;20262;-53
2022/12/28 10:08:25;;;;;;;2.50;2.30;;;11.10;89.20;;;13.58;63.69;100830.63;5025047;28;20187;-52
2022/12/28 10:10:58;;;;;;;2.83;2.40;;;11.10;89.20;;;13.58;63.77;100823.50;5033255;28;20237;-51
2022/12/28 10:13:33;;;;;;;2.20;2.10;;;11.10;89.20;;;13.60;63.73;100811.94;5033643;28;20221;-53
2022/12/28 10:16:22;;;;;;;2.77;2.00;;;11.10;89.20;;;13.57;63.68;100810.50;5034717;28;20225;-54
2022/12/28 10:18:51;;;;;;;2.23;2.03;;;11.10;89.30;;;13.41;64.54;100816.84;5033767;28;20691;-53
2022/12/28 10:21:22;;;;;;;2.20;2.10;;;11.10;89.50;;;13.44;64.41;100821.78;5033548;28;20194;-53
2022/12/28 10:24:00;;;;;;;1.67;1.57;;;11.10;89.40;;;13.61;64.23;100817.03;5016242;28;20207;-54
2022/12/28 10:26:47;;;;;;;2.30;1.83;;;11.20;89.40;;;13.66;64.25;100819.09;5013104;28;20192;-55
2022/12/28 10:29:19;;;;;;;1.93;1.83;;;11.20;89.70;;;13.72;64.00;100820.94;5013479;28;20329;-53
2022/12/28 10:31:58;;;;;;;2.00;1.90;;;11.20;89.70;;;13.55;64.48;100817.78;5013442;28;20627;-54
2022/12/28 10:34:28;;;;;;;2.43;2.00;;;11.20;90.00;;;13.64;64.63;100816.66;5016962;28;20226;-54
2022/12/28 10:37:13;;;;;;;1.70;1.60;;;11.30;89.90;;;13.66;64.38;100814.63;5020227;28;20562;-52
2022/12/28 10:39:50;;;;;;;2.33;2.13;;;11.20;89.90;;;13.69;63.85;100803.66;5016340;28;20222;-51
2022/12/28 10:42:24;;;;;;;1.90;1.80;;;11.20;89.90;;;13.75;64.26;100812.63;5022745;28;20193;-53
2022/12/28 10:44:56;;;;;;;2.37;2.27;;;11.20;90.00;;;13.74;64.16;100805.72;5027370;28;20187;-54
2022/12/28 10:47:33;;;;;;;1.90;1.80;;;11.20;90.00;;;13.73;64.36;100812.00;5023411;28;20574;-52
2022/12/28 10:50:05;;;;;;;2.50;2.30;;;11.20;90.10;;;13.73;64.50;100814.66;5028884;28;20244;-53
2022/12/28 10:52:57;;;;;;;2.03;1.93;;;11.20;90.10;;;13.78;64.32;100813.09;5023594;28;20257;-54
2022/12/28 10:55:29;;;;;;;2.80;2.60;;;11.30;90.10;;;13.76;64.32;100809.00;5013468;28;20233;-55
2022/12/28 10:58:15;;;;;;;2.00;1.90;;;11.20;90.10;;;13.72;64.50;100802.44;5024631;28;20245;-55
2022/12/28 11:01:04;;;;;;;1.80;1.70;;;11.20;90.20;;;13.66;64.81;100795.28;5031062;28;20565;-55
2022/12/28 11:03:36;;;;;;;1.87;1.70;;;11.20;90.20;;;13.60;65.03;100810.09;5032995;28;20178;-53